sensor_id;sensor_type;location;lat;lon;timestamp;pressure;altitude;pressure_sealevel;temperature;humidity
41044;BME280;51680;49.806;18.774;2023-04-27T00:00:56;97529.06;;;7.50;53.29
41044;BME280;51680;49.806;18.774;2023-04-27T00:04:00;97526.16;;;7.56;53.67
41044;BME280;51680;49.806;18.774;2023-04-27T00:07:03;97526.00;;;7.59;52.85
41044;BME280;51680;49.806;18.774;2023-04-27T00:10:06;97527.41;;;7.66;53.77
41044;BME280;51680;49.806;18.774;2023-04-27T00:13:08;97515.84;;;7.72;53.41
41044;BME280;51680;49.806;18.774;2023-04-27T00:16:10;97524.94;;;7.80;53.29
41044;BME280;51680;49.806;18.774;2023-04-27T00:19:13;97519.09;;;7.92;53.75
41044;BME280;51680;49.806;18.774;2023-04-27T00:22:15;97515.19;;;8.01;53.41
41044;BME280;51680;49.806;18.774;2023-04-27T00:25:17;97520.31;;;8.02;53.38
41044;BME280;51680;49.806;18.774;2023-04-27T00:28:19;97516.91;;;8.02;53.30
41044;BME280;51680;49.806;18.774;2023-04-27T00:31:21;97521.25;;;8.01;53.57
41044;BME280;51680;49.806;18.774;2023-04-27T00:34:24;97519.56;;;8.00;53.95
41044;BME280;51680;49.806;18.774;2023-04-27T00:37:26;97516.97;;;8.00;53.94
41044;BME280;51680;49.806;18.774;2023-04-27T00:40:28;97522.97;;;8.01;53.87
41044;BME280;51680;49.806;18.774;2023-04-27T00:43:30;97527.38;;;8.00;54.54
41044;BME280;51680;49.806;18.774;2023-04-27T00:46:32;97526.28;;;8.04;53.86
41044;BME280;51680;49.806;18.774;2023-04-27T00:49:35;97530.84;;;7.99;53.77
41044;BME280;51680;49.806;18.774;2023-04-27T00:52:37;97530.44;;;7.91;54.16
41044;BME280;51680;49.806;18.774;2023-04-27T00:55:39;97528.28;;;7.82;54.18
41044;BME280;51680;49.806;18.774;2023-04-27T00:58:41;97536.09;;;7.82;54.33
41044;BME280;51680;49.806;18.774;2023-04-27T01:01:43;97534.16;;;7.86;54.33
41044;BME280;51680;49.806;18.774;2023-04-27T01:04:47;97536.84;;;7.84;54.46
41044;BME280;51680;49.806;18.774;2023-04-27T01:07:54;97529.16;;;7.83;54.48
41044;BME280;51680;49.806;18.774;2023-04-27T01:10:56;97534.81;;;7.74;54.64
41044;BME280;51680;49.806;18.774;2023-04-27T01:14:02;97537.78;;;7.66;55.84
41044;BME280;51680;49.806;18.774;2023-04-27T01:17:04;97538.25;;;7.57;54.99
41044;BME280;51680;49.806;18.774;2023-04-27T01:20:08;97539.75;;;7.44;55.63
41044;BME280;51680;49.806;18.774;2023-04-27T01:23:13;97546.81;;;7.42;56.20
41044;BME280;51680;49.806;18.774;2023-04-27T01:26:16;97543.81;;;7.50;55.74
41044;BME280;51680;49.806;18.774;2023-04-27T01:29:18;97547.91;;;7.54;55.36
41044;BME280;51680;49.806;18.774;2023-04-27T01:32:20;97541.91;;;7.53;55.63
41044;BME280;51680;49.806;18.774;2023-04-27T01:35:26;97551.38;;;7.54;55.77
41044;BME280;51680;49.806;18.774;2023-04-27T01:38:29;97548.63;;;7.40;56.41
41044;BME280;51680;49.806;18.774;2023-04-27T01:41:30;97546.69;;;7.27;55.83
41044;BME280;51680;49.806;18.774;2023-04-27T01:44:32;97550.41;;;7.21;56.42
41044;BME280;51680;49.806;18.774;2023-04-27T01:47:34;97543.56;;;7.20;56.50
41044;BME280;51680;49.806;18.774;2023-04-27T01:50:36;97547.63;;;7.07;56.75
41044;BME280;51680;49.806;18.774;2023-04-27T01:53:41;97547.25;;;6.79;57.47
41044;BME280;51680;49.806;18.774;2023-04-27T01:56:43;97552.69;;;6.56;58.57
41044;BME280;51680;49.806;18.774;2023-04-27T01:59:45;97553.16;;;6.46;58.67
41044;BME280;51680;49.806;18.774;2023-04-27T02:02:47;97563.09;;;6.36;58.70
41044;BME280;51680;49.806;18.774;2023-04-27T02:05:50;97564.91;;;6.34;58.36
41044;BME280;51680;49.806;18.774;2023-04-27T02:08:54;97561.28;;;6.38;58.61
41044;BME280;51680;49.806;18.774;2023-04-27T02:11:56;97555.94;;;6.41;59.07
41044;BME280;51680;49.806;18.774;2023-04-27T02:14:59;97559.72;;;6.53;58.64
41044;BME280;51680;49.806;18.774;2023-04-27T02:18:02;97549.88;;;6.61;57.85
41044;BME280;51680;49.806;18.774;2023-04-27T02:21:07;97556.38;;;6.69;58.17
41044;BME280;51680;49.806;18.774;2023-04-27T02:24:11;97550.06;;;6.75;58.29
41044;BME280;51680;49.806;18.774;2023-04-27T02:27:13;97553.16;;;6.83;57.49
41044;BME280;51680;49.806;18.774;2023-04-27T02:30:15;97553.56;;;6.92;57.88
41044;BME280;51680;49.806;18.774;2023-04-27T02:33:17;97552.13;;;7.04;57.68
41044;BME280;51680;49.806;18.774;2023-04-27T02:36:18;97560.19;;;7.16;57.44
41044;BME280;51680;49.806;18.774;2023-04-27T02:39:22;97553.63;;;7.26;57.60
41044;BME280;51680;49.806;18.774;2023-04-27T02:42:23;97546.63;;;7.28;57.27
41044;BME280;51680;49.806;18.774;2023-04-27T02:45:25;97551.22;;;7.23;57.06
41044;BME280;51680;49.806;18.774;2023-04-27T02:48:27;97552.94;;;7.23;56.95
41044;BME280;51680;49.806;18.774;2023-04-27T02:51:30;97553.31;;;7.15;57.99
41044;BME280;51680;49.806;18.774;2023-04-27T02:54:33;97558.03;;;7.07;57.80
41044;BME280;51680;49.806;18.774;2023-04-27T02:57:35;97556.94;;;6.94;58.10
41044;BME280;51680;49.806;18.774;2023-04-27T03:00:37;97561.56;;;6.69;59.17
41044;BME280;51680;49.806;18.774;2023-04-27T03:03:40;97558.75;;;6.55;59.92
41044;BME280;51680;49.806;18.774;2023-04-27T03:06:42;97565.78;;;6.53;59.30
41044;BME280;51680;49.806;18.774;2023-04-27T03:10:04;97569.34;;;6.51;59.66
41044;BME280;51680;49.806;18.774;2023-04-27T03:13:06;97580.63;;;6.50;59.12
41044;BME280;51680;49.806;18.774;2023-04-27T03:16:09;97574.09;;;6.41;59.57
41044;BME280;51680;49.806;18.774;2023-04-27T03:19:11;97582.31;;;6.32;59.92
41044;BME280;51680;49.806;18.774;2023-04-27T03:22:13;97576.03;;;6.36;60.29
41044;BME280;51680;49.806;18.774;2023-04-27T03:25:17;97582.03;;;6.38;59.94
41044;BME280;51680;49.806;18.774;2023-04-27T03:28:19;97581.22;;;6.36;60.14
41044;BME280;51680;49.806;18.774;2023-04-27T03:31:20;97582.78;;;6.40;59.82
41044;BME280;51680;49.806;18.774;2023-04-27T03:34:22;97586.97;;;6.43;60.57
41044;BME280;51680;49.806;18.774;2023-04-27T03:37:24;97586.88;;;6.46;60.17
41044;BME280;51680;49.806;18.774;2023-04-27T03:40:27;97577.06;;;6.52;60.50
41044;BME280;51680;49.806;18.774;2023-04-27T03:43:29;97596.88;;;6.53;60.36
41044;BME280;51680;49.806;18.774;2023-04-27T03:46:31;97583.44;;;6.64;60.00
41044;BME280;51680;49.806;18.774;2023-04-27T03:49:33;97597.06;;;6.69;60.61
41044;BME280;51680;49.806;18.774;2023-04-27T03:52:35;97594.38;;;6.70;60.76
41044;BME280;51680;49.806;18.774;2023-04-27T03:55:40;97597.75;;;6.72;60.50
41044;BME280;51680;49.806;18.774;2023-04-27T03:58:43;97607.13;;;6.75;60.81
41044;BME280;51680;49.806;18.774;2023-04-27T04:01:55;97602.53;;;6.81;60.26
41044;BME280;51680;49.806;18.774;2023-04-27T04:04:58;97600.38;;;6.89;60.42
41044;BME280;51680;49.806;18.774;2023-04-27T04:07:59;97604.19;;;7.01;59.92
41044;BME280;51680;49.806;18.774;2023-04-27T04:11:03;97607.19;;;7.10;59.62
41044;BME280;51680;49.806;18.774;2023-04-27T04:14:05;97609.38;;;7.19;59.50
41044;BME280;51680;49.806;18.774;2023-04-27T04:17:25;97602.56;;;7.17;59.98
41044;BME280;51680;49.806;18.774;2023-04-27T04:20:27;97612.78;;;7.20;59.90
41044;BME280;51680;49.806;18.774;2023-04-27T04:23:29;97610.25;;;7.37;59.42
41044;BME280;51680;49.806;18.774;2023-04-27T04:26:36;97614.78;;;7.50;59.24
41044;BME280;51680;49.806;18.774;2023-04-27T04:29:38;97620.13;;;7.64;58.79
41044;BME280;51680;49.806;18.774;2023-04-27T04:32:40;97618.94;;;7.71;59.08
41044;BME280;51680;49.806;18.774;2023-04-27T04:35:42;97622.28;;;7.73;58.84
41044;BME280;51680;49.806;18.774;2023-04-27T04:38:44;97622.59;;;7.67;59.04
41044;BME280;51680;49.806;18.774;2023-04-27T04:41:48;97633.97;;;7.65;58.75
41044;BME280;51680;49.806;18.774;2023-04-27T04:44:50;97633.00;;;7.67;59.18
41044;BME280;51680;49.806;18.774;2023-04-27T04:47:52;97632.53;;;7.76;59.08
41044;BME280;51680;49.806;18.774;2023-04-27T04:50:54;97637.56;;;7.79;58.98
41044;BME280;51680;49.806;18.774;2023-04-27T04:53:57;97640.78;;;7.84;58.68
41044;BME280;51680;49.806;18.774;2023-04-27T04:57:00;97637.13;;;7.88;58.80
41044;BME280;51680;49.806;18.774;2023-04-27T05:00:04;97642.63;;;7.82;59.02
41044;BME280;51680;49.806;18.774;2023-04-27T05:03:11;97643.84;;;7.75;59.42
41044;BME280;51680;49.806;18.774;2023-04-27T05:06:13;97646.44;;;7.75;60.15
41044;BME280;51680;49.806;18.774;2023-04-27T05:09:15;97640.25;;;7.78;59.52
41044;BME280;51680;49.806;18.774;2023-04-27T05:12:18;97642.25;;;7.90;60.01
41044;BME280;51680;49.806;18.774;2023-04-27T05:15:20;97643.84;;;7.92;59.43
41044;BME280;51680;49.806;18.774;2023-04-27T05:18:22;97653.66;;;8.04;59.18
41044;BME280;51680;49.806;18.774;2023-04-27T05:21:23;97647.69;;;8.19;59.54
41044;BME280;51680;49.806;18.774;2023-04-27T05:24:25;97656.44;;;8.35;58.83
41044;BME280;51680;49.806;18.774;2023-04-27T05:27:28;97649.22;;;8.57;59.16
41044;BME280;51680;49.806;18.774;2023-04-27T05:30:30;97654.34;;;8.74;58.59
41044;BME280;51680;49.806;18.774;2023-04-27T05:33:32;97660.69;;;8.86;58.87
41044;BME280;51680;49.806;18.774;2023-04-27T05:36:34;97664.91;;;9.04;58.61
41044;BME280;51680;49.806;18.774;2023-04-27T05:39:37;97660.41;;;9.23;58.13
41044;BME280;51680;49.806;18.774;2023-04-27T05:42:40;97658.41;;;9.43;57.95
41044;BME280;51680;49.806;18.774;2023-04-27T05:45:42;97664.28;;;9.62;57.13
41044;BME280;51680;49.806;18.774;2023-04-27T05:48:44;97670.88;;;9.83;56.34
41044;BME280;51680;49.806;18.774;2023-04-27T05:51:45;97667.19;;;9.87;55.71
41044;BME280;51680;49.806;18.774;2023-04-27T05:54:47;97668.41;;;10.11;55.60
41044;BME280;51680;49.806;18.774;2023-04-27T05:57:51;97674.97;;;10.32;55.17
41044;BME280;51680;49.806;18.774;2023-04-27T06:00:54;97671.38;;;10.49;55.02
41044;BME280;51680;49.806;18.774;2023-04-27T06:03:56;97669.44;;;10.66;54.18
41044;BME280;51680;49.806;18.774;2023-04-27T06:07:00;97664.25;;;10.80;54.52
41044;BME280;51680;49.806;18.774;2023-04-27T06:10:04;97669.28;;;10.97;53.74
41044;BME280;51680;49.806;18.774;2023-04-27T06:13:07;97669.06;;;11.14;53.46
41044;BME280;51680;49.806;18.774;2023-04-27T06:16:09;97672.44;;;11.30;52.99
41044;BME280;51680;49.806;18.774;2023-04-27T06:19:10;97676.81;;;11.44;53.25
41044;BME280;51680;49.806;18.774;2023-04-27T06:22:12;97677.91;;;11.54;52.56
41044;BME280;51680;49.806;18.774;2023-04-27T06:25:14;97664.81;;;11.68;52.41
41044;BME280;51680;49.806;18.774;2023-04-27T06:28:17;97664.88;;;11.80;51.94
41044;BME280;51680;49.806;18.774;2023-04-27T06:31:19;97676.31;;;11.92;51.19
41044;BME280;51680;49.806;18.774;2023-04-27T06:34:21;97676.28;;;12.06;51.27
41044;BME280;51680;49.806;18.774;2023-04-27T06:37:22;97681.34;;;12.21;49.88
41044;BME280;51680;49.806;18.774;2023-04-27T06:40:24;97680.31;;;12.36;49.52
41044;BME280;51680;49.806;18.774;2023-04-27T06:43:28;97685.06;;;12.44;49.48
41044;BME280;51680;49.806;18.774;2023-04-27T06:46:30;97685.16;;;12.55;48.93
41044;BME280;51680;49.806;18.774;2023-04-27T06:49:31;97690.41;;;12.67;48.77
41044;BME280;51680;49.806;18.774;2023-04-27T06:52:33;97690.03;;;12.73;48.25
41044;BME280;51680;49.806;18.774;2023-04-27T06:55:35;97691.06;;;12.83;47.96
41044;BME280;51680;49.806;18.774;2023-04-27T06:58:38;97696.41;;;12.94;47.47
41044;BME280;51680;49.806;18.774;2023-04-27T07:01:40;97694.00;;;13.04;47.26
41044;BME280;51680;49.806;18.774;2023-04-27T07:04:42;97700.09;;;13.17;47.40
41044;BME280;51680;49.806;18.774;2023-04-27T07:07:44;97688.03;;;13.27;47.07
41044;BME280;51680;49.806;18.774;2023-04-27T07:10:46;97693.56;;;13.47;47.31
41044;BME280;51680;49.806;18.774;2023-04-27T07:13:49;97689.84;;;13.62;46.93
41044;BME280;51680;49.806;18.774;2023-04-27T07:16:51;97684.44;;;13.76;46.30
41044;BME280;51680;49.806;18.774;2023-04-27T07:19:52;97690.41;;;13.78;45.93
41044;BME280;51680;49.806;18.774;2023-04-27T07:22:54;97691.75;;;13.84;45.66
41044;BME280;51680;49.806;18.774;2023-04-27T07:25:56;97694.13;;;13.99;45.85
41044;BME280;51680;49.806;18.774;2023-04-27T07:28:59;97696.06;;;14.21;45.13
41044;BME280;51680;49.806;18.774;2023-04-27T07:32:04;97701.03;;;14.36;44.95
41044;BME280;51680;49.806;18.774;2023-04-27T07:35:06;97685.22;;;14.60;44.53
41044;BME280;51680;49.806;18.774;2023-04-27T07:38:08;97691.09;;;14.74;43.80
41044;BME280;51680;49.806;18.774;2023-04-27T07:41:11;97697.09;;;14.87;43.61
41044;BME280;51680;49.806;18.774;2023-04-27T07:44:16;97689.94;;;15.00;42.77
41044;BME280;51680;49.806;18.774;2023-04-27T07:47:18;97686.88;;;15.17;42.94
41044;BME280;51680;49.806;18.774;2023-04-27T07:50:21;97688.69;;;15.39;43.03
41044;BME280;51680;49.806;18.774;2023-04-27T07:53:24;97682.09;;;15.44;42.97
41044;BME280;51680;49.806;18.774;2023-04-27T07:56:26;97688.69;;;15.39;42.52
41044;BME280;51680;49.806;18.774;2023-04-27T07:59:30;97693.81;;;15.51;42.60
41044;BME280;51680;49.806;18.774;2023-04-27T08:02:31;97687.09;;;15.58;42.62
41044;BME280;51680;49.806;18.774;2023-04-27T08:05:33;97686.63;;;15.53;41.99
41044;BME280;51680;49.806;18.774;2023-04-27T08:08:35;97683.59;;;15.80;41.25
41044;BME280;51680;49.806;18.774;2023-04-27T08:11:37;97677.44;;;16.44;39.80
41044;BME280;51680;49.806;18.774;2023-04-27T08:14:40;97673.56;;;17.09;38.84
41044;BME280;51680;49.806;18.774;2023-04-27T08:17:42;97671.56;;;17.52;38.46
41044;BME280;51680;49.806;18.774;2023-04-27T08:20:44;97665.16;;;17.45;37.36
41044;BME280;51680;49.806;18.774;2023-04-27T08:23:45;97673.53;;;17.60;37.24
41044;BME280;51680;49.806;18.774;2023-04-27T08:26:47;97670.78;;;17.11;36.74
41044;BME280;51680;49.806;18.774;2023-04-27T08:29:50;97681.06;;;16.63;37.49
41044;BME280;51680;49.806;18.774;2023-04-27T08:32:52;97678.25;;;17.06;38.03
41044;BME280;51680;49.806;18.774;2023-04-27T08:35:54;97676.22;;;17.09;38.41
41044;BME280;51680;49.806;18.774;2023-04-27T08:38:56;97671.19;;;17.06;38.61
41044;BME280;51680;49.806;18.774;2023-04-27T08:41:58;97673.13;;;17.34;38.05
41044;BME280;51680;49.806;18.774;2023-04-27T08:45:01;97666.19;;;17.63;36.98
41044;BME280;51680;49.806;18.774;2023-04-27T08:48:04;97668.06;;;17.91;37.26
41044;BME280;51680;49.806;18.774;2023-04-27T08:51:08;97675.00;;;18.02;35.91
41044;BME280;51680;49.806;18.774;2023-04-27T08:54:11;97680.03;;;17.95;36.87
41044;BME280;51680;49.806;18.774;2023-04-27T08:57:14;97682.47;;;17.78;37.14
41044;BME280;51680;49.806;18.774;2023-04-27T09:00:19;97683.25;;;17.29;36.88
41044;BME280;51680;49.806;18.774;2023-04-27T09:03:21;97684.38;;;17.06;37.69
41044;BME280;51680;49.806;18.774;2023-04-27T09:06:30;97685.34;;;16.64;36.83
41044;BME280;51680;49.806;18.774;2023-04-27T09:09:32;97684.09;;;16.27;38.13
41044;BME280;51680;49.806;18.774;2023-04-27T09:12:34;97682.47;;;16.04;38.38
41044;BME280;51680;49.806;18.774;2023-04-27T09:15:42;97682.75;;;15.90;37.48
41044;BME280;51680;49.806;18.774;2023-04-27T09:18:44;97683.38;;;15.83;38.91
41044;BME280;51680;49.806;18.774;2023-04-27T09:21:46;97682.28;;;15.85;38.67
41044;BME280;51680;49.806;18.774;2023-04-27T09:24:51;97680.81;;;16.03;37.56
41044;BME280;51680;49.806;18.774;2023-04-27T09:27:53;97674.28;;;16.18;38.19
41044;BME280;51680;49.806;18.774;2023-04-27T09:30:58;97668.13;;;16.29;36.81
41044;BME280;51680;49.806;18.774;2023-04-27T09:34:01;97664.72;;;16.69;37.26
41044;BME280;51680;49.806;18.774;2023-04-27T09:37:03;97669.13;;;16.89;36.30
41044;BME280;51680;49.806;18.774;2023-04-27T09:40:06;97664.69;;;17.10;36.57
41044;BME280;51680;49.806;18.774;2023-04-27T09:43:08;97655.56;;;17.44;35.55
41044;BME280;51680;49.806;18.774;2023-04-27T09:46:13;97664.94;;;17.67;35.43
41044;BME280;51680;49.806;18.774;2023-04-27T09:49:16;97664.69;;;17.80;35.25
41044;BME280;51680;49.806;18.774;2023-04-27T09:52:19;97665.72;;;18.07;35.49
41044;BME280;51680;49.806;18.774;2023-04-27T09:55:24;97661.81;;;17.92;34.32
41044;BME280;51680;49.806;18.774;2023-04-27T09:58:50;97663.22;;;17.96;32.66
41044;BME280;51680;49.806;18.774;2023-04-27T10:01:59;97658.31;;;17.92;34.87
41044;BME280;51680;49.806;18.774;2023-04-27T10:05:36;97659.84;;;17.85;34.60
41044;BME280;51680;49.806;18.774;2023-04-27T10:08:41;97667.16;;;17.72;36.26
41044;BME280;51680;49.806;18.774;2023-04-27T10:11:43;97659.31;;;17.51;35.85
41044;BME280;51680;49.806;18.774;2023-04-27T10:14:48;97659.31;;;17.51;36.06
41044;BME280;51680;49.806;18.774;2023-04-27T10:17:51;97653.78;;;17.45;35.59
41044;BME280;51680;49.806;18.774;2023-04-27T10:20:54;97651.25;;;17.43;35.69
41044;BME280;51680;49.806;18.774;2023-04-27T10:24:05;97650.59;;;17.60;33.25
41044;BME280;51680;49.806;18.774;2023-04-27T10:27:09;97655.31;;;17.47;34.85
41044;BME280;51680;49.806;18.774;2023-04-27T10:30:16;97658.75;;;17.48;34.40
41044;BME280;51680;49.806;18.774;2023-04-27T10:33:21;97653.09;;;17.52;34.75
41044;BME280;51680;49.806;18.774;2023-04-27T10:36:33;97655.56;;;17.44;33.00
41044;BME280;51680;49.806;18.774;2023-04-27T10:39:38;97663.41;;;17.35;35.45
41044;BME280;51680;49.806;18.774;2023-04-27T10:42:40;97670.31;;;17.26;35.98
41044;BME280;51680;49.806;18.774;2023-04-27T10:45:44;97669.69;;;17.13;36.25
41044;BME280;51680;49.806;18.774;2023-04-27T10:48:47;97668.97;;;16.81;36.49
41044;BME280;51680;49.806;18.774;2023-04-27T10:51:50;97677.31;;;16.66;36.92
41044;BME280;51680;49.806;18.774;2023-04-27T10:54:51;97672.91;;;16.35;36.89
41044;BME280;51680;49.806;18.774;2023-04-27T10:57:54;97670.19;;;16.25;36.71
41044;BME280;51680;49.806;18.774;2023-04-27T11:00:56;97673.59;;;16.05;37.08
41044;BME280;51680;49.806;18.774;2023-04-27T11:04:00;97670.59;;;16.10;36.96
41044;BME280;51680;49.806;18.774;2023-04-27T11:07:26;97676.53;;;15.91;37.15
41044;BME280;51680;49.806;18.774;2023-04-27T11:10:28;97680.94;;;15.91;37.06
41044;BME280;51680;49.806;18.774;2023-04-27T11:13:30;97679.84;;;15.93;36.73
41044;BME280;51680;49.806;18.774;2023-04-27T11:16:33;97682.59;;;16.03;37.20
41044;BME280;51680;49.806;18.774;2023-04-27T11:19:44;97677.91;;;16.06;35.58
41044;BME280;51680;49.806;18.774;2023-04-27T11:22:47;97676.81;;;16.09;37.21
41044;BME280;51680;49.806;18.774;2023-04-27T11:25:49;97677.38;;;16.23;37.62
41044;BME280;51680;49.806;18.774;2023-04-27T11:28:57;97676.63;;;16.32;35.74
41044;BME280;51680;49.806;18.774;2023-04-27T11:31:59;97682.13;;;16.40;36.98
41044;BME280;51680;49.806;18.774;2023-04-27T11:35:03;97678.59;;;16.51;36.61
41044;BME280;51680;49.806;18.774;2023-04-27T11:38:04;97671.22;;;16.45;36.19
41044;BME280;51680;49.806;18.774;2023-04-27T11:41:06;97675.75;;;16.43;36.24
41044;BME280;51680;49.806;18.774;2023-04-27T11:44:09;97670.59;;;16.41;35.74
41044;BME280;51680;49.806;18.774;2023-04-27T11:47:15;97666.28;;;16.51;35.38
41044;BME280;51680;49.806;18.774;2023-04-27T11:50:23;97664.38;;;16.63;35.00
41044;BME280;51680;49.806;18.774;2023-04-27T11:53:29;97657.56;;;16.81;34.85
41044;BME280;51680;49.806;18.774;2023-04-27T11:56:35;97667.53;;;16.98;34.68
41044;BME280;51680;49.806;18.774;2023-04-27T11:59:37;97656.13;;;17.18;34.68
41044;BME280;51680;49.806;18.774;2023-04-27T12:02:39;97663.06;;;17.19;34.39
41044;BME280;51680;49.806;18.774;2023-04-27T12:05:48;97662.50;;;17.15;34.58
41044;BME280;51680;49.806;18.774;2023-04-27T12:09:08;97660.03;;;17.23;34.36
41044;BME280;51680;49.806;18.774;2023-04-27T12:12:11;97657.66;;;17.20;33.97
41044;BME280;51680;49.806;18.774;2023-04-27T12:15:13;97659.06;;;17.24;34.19
41044;BME280;51680;49.806;18.774;2023-04-27T12:18:15;97659.97;;;17.14;34.54
41044;BME280;51680;49.806;18.774;2023-04-27T12:21:18;97669.13;;;17.10;34.68
41044;BME280;51680;49.806;18.774;2023-04-27T12:24:20;97670.22;;;17.07;34.64
41044;BME280;51680;49.806;18.774;2023-04-27T12:27:22;97670.19;;;16.98;34.80
41044;BME280;51680;49.806;18.774;2023-04-27T12:30:24;97667.56;;;16.77;34.95
41044;BME280;51680;49.806;18.774;2023-04-27T12:33:25;97660.22;;;16.60;35.02
41044;BME280;51680;49.806;18.774;2023-04-27T12:36:28;97658.16;;;16.43;34.79
41044;BME280;51680;49.806;18.774;2023-04-27T12:39:31;97662.84;;;16.40;35.58
41044;BME280;51680;49.806;18.774;2023-04-27T12:42:32;97662.84;;;16.40;35.11
41044;BME280;51680;49.806;18.774;2023-04-27T12:45:34;97661.06;;;16.29;35.78
41044;BME280;51680;49.806;18.774;2023-04-27T12:48:36;97662.03;;;16.28;35.96
41044;BME280;51680;49.806;18.774;2023-04-27T12:51:39;97660.31;;;16.38;35.53
41044;BME280;51680;49.806;18.774;2023-04-27T12:54:41;97651.28;;;16.52;35.36
41044;BME280;51680;49.806;18.774;2023-04-27T12:57:43;97651.22;;;16.42;34.68
41044;BME280;51680;49.806;18.774;2023-04-27T13:00:44;97655.75;;;16.40;35.46
41044;BME280;51680;49.806;18.774;2023-04-27T13:03:46;97645.19;;;16.51;35.02
41044;BME280;51680;49.806;18.774;2023-04-27T13:06:49;97649.94;;;16.57;34.87
41044;BME280;51680;49.806;18.774;2023-04-27T13:09:51;97639.41;;;16.57;34.50
41044;BME280;51680;49.806;18.774;2023-04-27T13:12:53;97647.81;;;16.51;34.15
41044;BME280;51680;49.806;18.774;2023-04-27T13:15:55;97646.53;;;16.46;34.23
41044;BME280;51680;49.806;18.774;2023-04-27T13:18:57;97649.16;;;16.46;35.12
41044;BME280;51680;49.806;18.774;2023-04-27T13:22:00;97644.91;;;16.54;35.00
41044;BME280;51680;49.806;18.774;2023-04-27T13:25:03;97646.84;;;16.52;34.32
41044;BME280;51680;49.806;18.774;2023-04-27T13:28:06;97638.88;;;15.69;34.05
41044;BME280;51680;49.806;18.774;2023-04-27T13:31:08;97650.75;;;15.19;35.34
41044;BME280;51680;49.806;18.774;2023-04-27T13:34:10;97656.03;;;15.08;35.89
41044;BME280;51680;49.806;18.774;2023-04-27T13:37:13;97648.59;;;15.24;35.83
41044;BME280;51680;49.806;18.774;2023-04-27T13:40:15;97649.47;;;15.36;35.93
41044;BME280;51680;49.806;18.774;2023-04-27T13:43:17;97647.19;;;15.42;35.79
41044;BME280;51680;49.806;18.774;2023-04-27T13:46:18;97659.59;;;15.40;36.25
41044;BME280;51680;49.806;18.774;2023-04-27T13:49:20;97660.81;;;15.47;35.95
41044;BME280;51680;49.806;18.774;2023-04-27T13:52:23;97649.78;;;15.53;35.23
41044;BME280;51680;49.806;18.774;2023-04-27T13:55:26;97648.72;;;15.56;35.83
41044;BME280;51680;49.806;18.774;2023-04-27T13:58:30;97661.25;;;15.63;36.58
41044;BME280;51680;49.806;18.774;2023-04-27T14:01:32;97648.56;;;15.68;36.06
41044;BME280;51680;49.806;18.774;2023-04-27T14:05:00;97656.69;;;15.76;34.79
41044;BME280;51680;49.806;18.774;2023-04-27T14:08:04;97659.56;;;15.84;36.00
41044;BME280;51680;49.806;18.774;2023-04-27T14:11:24;97653.41;;;15.95;35.96
41044;BME280;51680;49.806;18.774;2023-04-27T14:14:26;97663.13;;;15.94;35.38
41044;BME280;51680;49.806;18.774;2023-04-27T14:17:28;97668.47;;;16.04;35.62
41044;BME280;51680;49.806;18.774;2023-04-27T14:20:30;97664.75;;;16.06;35.30
41044;BME280;51680;49.806;18.774;2023-04-27T14:23:33;97661.53;;;16.03;34.61
41044;BME280;51680;49.806;18.774;2023-04-27T14:26:35;97669.59;;;15.90;34.75
41044;BME280;51680;49.806;18.774;2023-04-27T14:29:37;97663.38;;;15.80;35.74
41044;BME280;51680;49.806;18.774;2023-04-27T14:32:39;97660.53;;;15.72;35.53
41044;BME280;51680;49.806;18.774;2023-04-27T14:35:41;97660.03;;;15.78;35.33
41044;BME280;51680;49.806;18.774;2023-04-27T14:38:44;97670.56;;;15.89;35.38
41044;BME280;51680;49.806;18.774;2023-04-27T14:41:46;97675.31;;;15.95;35.77
41044;BME280;51680;49.806;18.774;2023-04-27T14:44:47;97669.78;;;15.98;35.42
41044;BME280;51680;49.806;18.774;2023-04-27T14:47:49;97671.94;;;15.93;35.34
41044;BME280;51680;49.806;18.774;2023-04-27T14:50:51;97663.13;;;15.94;35.52
41044;BME280;51680;49.806;18.774;2023-04-27T14:53:54;97667.41;;;15.95;35.68
41044;BME280;51680;49.806;18.774;2023-04-27T14:56:56;97667.53;;;15.94;35.53
41044;BME280;51680;49.806;18.774;2023-04-27T15:00:00;97672.69;;;15.95;35.34
41044;BME280;51680;49.806;18.774;2023-04-27T15:03:04;97665.88;;;15.93;34.61
41044;BME280;51680;49.806;18.774;2023-04-27T15:06:06;97672.41;;;15.98;36.24
41044;BME280;51680;49.806;18.774;2023-04-27T15:09:09;97674.47;;;16.06;35.93
41044;BME280;51680;49.806;18.774;2023-04-27T15:12:12;97679.22;;;16.12;35.42
41044;BME280;51680;49.806;18.774;2023-04-27T15:15:14;97675.03;;;16.09;35.30
41044;BME280;51680;49.806;18.774;2023-04-27T15:18:35;97683.91;;;15.97;34.84
41044;BME280;51680;49.806;18.774;2023-04-27T15:21:37;97676.28;;;15.94;34.91
41044;BME280;51680;49.806;18.774;2023-04-27T15:24:40;97683.22;;;15.95;34.69
41044;BME280;51680;49.806;18.774;2023-04-27T15:27:41;97685.28;;;15.92;34.81
41044;BME280;51680;49.806;18.774;2023-04-27T15:30:44;97683.09;;;15.86;34.94
41044;BME280;51680;49.806;18.774;2023-04-27T15:33:45;97674.75;;;15.81;35.04
41044;BME280;51680;49.806;18.774;2023-04-27T15:36:47;97675.47;;;15.72;35.14
41044;BME280;51680;49.806;18.774;2023-04-27T15:39:50;97680.75;;;15.72;35.45
41044;BME280;51680;49.806;18.774;2023-04-27T15:42:52;97680.38;;;15.76;35.36
41044;BME280;51680;49.806;18.774;2023-04-27T15:45:53;97672.72;;;15.73;35.39
41044;BME280;51680;49.806;18.774;2023-04-27T15:49:14;97673.22;;;15.67;35.46
41044;BME280;51680;49.806;18.774;2023-04-27T15:52:34;97680.88;;;15.59;35.13
41044;BME280;51680;49.806;18.774;2023-04-27T15:55:37;97675.88;;;15.56;35.51
41044;BME280;51680;49.806;18.774;2023-04-27T15:58:39;97680.28;;;15.56;35.71
41044;BME280;51680;49.806;18.774;2023-04-27T16:01:41;97676.09;;;15.53;35.32